Time;durP1;ratioP1;P1;durP2;ratioP2;P2;SDS_P1;SDS_P2;PMS_P1;PMS_P2;Temp;Humidity;BMP_temperature;BMP_pressure;BME280_temperature;BME280_humidity;BME280_pressure;Samples;Min_cycle;Max_cycle;Signal;HPM_P1;HPM_P2
2021/05/09 00:01:39;;;;;;;3.63;2.85;;;13.60;99.90;;;;;;5091574;28;20230;-84
2021/05/09 00:04:05;;;;;;;5.28;2.60;;;13.60;99.90;;;;;;5074774;28;20183;-84
2021/05/09 00:06:32;;;;;;;4.57;2.10;;;13.50;99.90;;;;;;5080917;28;20204;-84
2021/05/09 00:08:58;;;;;;;3.38;2.40;;;13.50;99.90;;;;;;5075997;28;20194;-84
2021/05/09 00:11:24;;;;;;;6.40;2.45;;;13.50;99.90;;;;;;5093807;28;20187;-84
2021/05/09 00:13:51;;;;;;;6.15;2.10;;;13.40;99.90;;;;;;5089992;28;20214;-84
2021/05/09 00:16:17;;;;;;;4.50;1.70;;;13.40;99.90;;;;;;5092237;28;20183;-84
2021/05/09 00:18:44;;;;;;;4.82;2.40;;;13.40;99.90;;;;;;5093391;28;20642;-84
2021/05/09 00:21:10;;;;;;;3.58;2.53;;;13.30;99.90;;;;;;5092583;28;20188;-84
2021/05/09 00:23:36;;;;;;;2.70;2.00;;;13.30;99.90;;;;;;5091732;28;20230;-84
2021/05/09 00:26:03;;;;;;;4.43;2.00;;;13.30;99.90;;;;;;5074002;28;20236;-84
2021/05/09 00:28:29;;;;;;;4.50;2.60;;;13.30;99.90;;;;;;5085260;28;20662;-84
2021/05/09 00:30:55;;;;;;;3.13;2.53;;;13.20;99.90;;;;;;5091324;28;20183;-84
2021/05/09 00:33:21;;;;;;;2.95;2.03;;;13.20;99.90;;;;;;5087183;28;20210;-84
2021/05/09 00:35:49;;;;;;;3.63;2.53;;;13.20;99.90;;;;;;5089485;28;20180;-84
2021/05/09 00:38:15;;;;;;;3.00;2.30;;;13.10;99.90;;;;;;5075204;28;20239;-84
2021/05/09 00:40:42;;;;;;;6.10;2.90;;;13.00;99.90;;;;;;5079798;28;20190;-84
2021/05/09 00:43:08;;;;;;;4.47;2.53;;;13.00;99.90;;;;;;5082885;28;20187;-84
2021/05/09 00:45:34;;;;;;;4.35;2.70;;;12.80;99.90;;;;;;5073497;28;20187;-84
2021/05/09 00:48:00;;;;;;;3.85;2.40;;;12.80;99.90;;;;;;5074092;28;20188;-84
2021/05/09 00:50:28;;;;;;;5.72;2.53;;;12.60;99.90;;;;;;5083560;28;20179;-84
2021/05/09 00:52:57;;;;;;;3.35;2.45;;;12.50;99.90;;;;;;5088963;28;20159;-84
2021/05/09 00:55:25;;;;;;;4.57;2.15;;;12.50;99.90;;;;;;5104564;28;20184;-84
2021/05/09 00:57:51;;;;;;;3.90;2.50;;;12.40;99.90;;;;;;5087050;28;20187;-84
2021/05/09 01:00:18;;;;;;;3.25;2.55;;;12.30;99.90;;;;;;5075064;28;20720;-84
2021/05/09 01:02:45;;;;;;;4.05;1.92;;;12.30;99.90;;;;;;5078964;28;20211;-84
2021/05/09 01:05:13;;;;;;;5.53;2.20;;;12.30;99.90;;;;;;5081393;28;20230;-84
2021/05/09 01:07:40;;;;;;;3.97;2.15;;;12.30;99.90;;;;;;5074760;28;20189;-84
2021/05/09 01:10:10;;;;;;;3.50;2.47;;;12.20;99.90;;;;;;5078482;28;20657;-85
2021/05/09 01:12:36;;;;;;;3.50;2.40;;;12.20;99.90;;;;;;5074684;28;20179;-84
2021/05/09 01:15:03;;;;;;;7.10;2.85;;;12.30;99.90;;;;;;5076639;28;20246;-85
2021/05/09 01:17:29;;;;;;;3.40;2.50;;;12.30;99.90;;;;;;5082152;28;20189;-84
2021/05/09 01:20:00;;;;;;;3.88;1.90;;;12.20;99.90;;;;;;5088619;28;20183;-85
2021/05/09 01:22:26;;;;;;;3.58;2.30;;;12.20;99.90;;;;;;5093726;28;20190;-84
2021/05/09 01:24:53;;;;;;;2.97;1.83;;;12.20;99.90;;;;;;5076869;28;20191;-84
2021/05/09 01:27:19;;;;;;;4.32;2.30;;;12.20;99.90;;;;;;5085162;28;20206;-85
2021/05/09 01:29:45;;;;;;;3.33;2.35;;;12.20;99.90;;;;;;5080535;28;20182;-84
2021/05/09 01:32:12;;;;;;;3.28;2.20;;;12.20;99.90;;;;;;5081621;28;20183;-84
2021/05/09 01:34:39;;;;;;;3.33;1.92;;;12.10;99.90;;;;;;5081034;28;20211;-84
2021/05/09 01:37:06;;;;;;;3.25;2.35;;;12.10;99.90;;;;;;5076929;28;20184;-84
2021/05/09 01:39:32;;;;;;;2.75;2.08;;;12.20;99.90;;;;;;5077892;28;20188;-85
2021/05/09 01:42:01;;;;;;;3.92;2.25;;;12.10;99.90;;;;;;5085016;28;20184;-84
2021/05/09 01:44:27;;;;;;;6.15;2.67;;;12.00;99.90;;;;;;5080069;28;20261;-84
2021/05/09 01:46:53;;;;;;;2.83;2.22;;;12.00;99.90;;;;;;5081317;28;20195;-84
2021/05/09 01:49:19;;;;;;;4.50;2.70;;;11.90;99.90;;;;;;5088750;28;20232;-84
2021/05/09 01:51:46;;;;;;;4.47;2.13;;;11.90;99.90;;;;;;5093415;28;20186;-84
2021/05/09 01:54:13;;;;;;;3.75;2.65;;;11.80;99.90;;;;;;5087680;28;20221;-84
2021/05/09 01:56:39;;;;;;;4.50;2.22;;;11.80;99.90;;;;;;5087916;28;20206;-84
2021/05/09 01:59:07;;;;;;;5.55;2.50;;;11.80;99.90;;;;;;5086883;28;20191;-84
2021/05/09 02:01:34;;;;;;;3.78;2.15;;;11.80;99.90;;;;;;5076131;28;20222;-84
2021/05/09 02:04:00;;;;;;;5.07;2.60;;;11.90;99.90;;;;;;5077515;28;20191;-84
2021/05/09 02:06:26;;;;;;;3.30;2.22;;;11.90;99.90;;;;;;5085779;28;20194;-84
2021/05/09 02:08:52;;;;;;;3.85;2.08;;;12.00;99.90;;;;;;5080815;28;20237;-84
2021/05/09 02:11:19;;;;;;;4.38;2.25;;;12.00;99.90;;;;;;5076732;28;20191;-84
2021/05/09 02:13:46;;;;;;;3.03;2.17;;;12.00;99.90;;;;;;5085547;28;20207;-84
2021/05/09 02:16:12;;;;;;;2.92;2.55;;;12.00;99.90;;;;;;5092830;28;20190;-84
2021/05/09 02:18:38;;;;;;;3.85;2.80;;;12.00;99.90;;;;;;5090998;28;20643;-84
2021/05/09 02:21:05;;;;;;;3.53;1.88;;;11.90;99.90;;;;;;5076338;28;20183;-84
2021/05/09 02:23:31;;;;;;;3.50;2.47;;;12.00;99.90;;;;;;5086425;28;20229;-84
2021/05/09 02:25:57;;;;;;;4.78;2.83;;;12.00;99.90;;;;;;5076381;28;20183;-84
2021/05/09 02:28:24;;;;;;;4.65;2.30;;;12.10;99.90;;;;;;5091039;28;20236;-84
2021/05/09 02:30:50;;;;;;;4.57;2.90;;;12.00;99.90;;;;;;5088940;28;20196;-84
2021/05/09 02:33:16;;;;;;;3.85;2.35;;;12.10;99.90;;;;;;5081347;28;20214;-84
2021/05/09 02:35:43;;;;;;;3.53;2.13;;;12.10;99.90;;;;;;5079474;28;20183;-84
2021/05/09 02:38:09;;;;;;;5.85;2.13;;;12.20;99.90;;;;;;5084026;28;20248;-84
2021/05/09 02:40:35;;;;;;;4.70;2.80;;;12.30;99.90;;;;;;5098976;28;20182;-84
2021/05/09 02:43:01;;;;;;;3.47;2.35;;;12.30;99.90;;;;;;5100320;28;20183;-83
2021/05/09 02:45:29;;;;;;;4.75;2.08;;;12.30;99.90;;;;;;5110378;28;20171;-83
2021/05/09 02:47:55;;;;;;;3.85;2.30;;;12.40;99.90;;;;;;5116654;28;20211;-83
2021/05/09 02:50:21;;;;;;;3.15;2.20;;;12.40;99.90;;;;;;5115312;28;20171;-83
2021/05/09 02:52:47;;;;;;;4.30;2.53;;;12.40;99.90;;;;;;5106432;28;20190;-83
2021/05/09 02:55:14;;;;;;;3.15;2.30;;;12.50;99.90;;;;;;5097896;28;20199;-84
2021/05/09 02:57:40;;;;;;;4.43;2.00;;;12.50;99.90;;;;;;5090193;28;20190;-84
2021/05/09 03:00:07;;;;;;;3.40;2.40;;;12.50;99.90;;;;;;5082012;28;20191;-84
2021/05/09 03:02:34;;;;;;;3.42;2.70;;;12.50;99.90;;;;;;5080195;28;20223;-83
2021/05/09 03:05:01;;;;;;;2.85;2.35;;;12.50;99.90;;;;;;5094583;28;20191;-84
2021/05/09 03:07:27;;;;;;;6.18;3.35;;;12.50;99.90;;;;;;5080584;28;20550;-83
2021/05/09 03:09:53;;;;;;;5.07;1.98;;;12.50;99.90;;;;;;5079559;28;20198;-83
2021/05/09 03:12:19;;;;;;;3.20;2.80;;;12.50;99.90;;;;;;5081362;28;20231;-83
2021/05/09 03:14:46;;;;;;;4.60;2.55;;;12.50;99.90;;;;;;5104031;28;20279;-82
2021/05/09 03:17:12;;;;;;;2.90;2.10;;;12.60;99.90;;;;;;5101593;28;20187;-83
2021/05/09 03:19:39;;;;;;;5.32;2.65;;;12.50;99.90;;;;;;5101685;28;20172;-84
2021/05/09 03:22:06;;;;;;;3.88;2.45;;;12.50;99.90;;;;;;5098805;28;20180;-83
2021/05/09 03:24:33;;;;;;;3.13;2.17;;;12.50;99.90;;;;;;5090432;28;20183;-83
2021/05/09 03:26:59;;;;;;;3.28;2.03;;;12.40;99.90;;;;;;5090642;28;20635;-83
2021/05/09 03:29:26;;;;;;;5.13;2.35;;;12.40;99.90;;;;;;5099947;28;20190;-83
2021/05/09 03:31:52;;;;;;;3.58;2.22;;;12.50;99.90;;;;;;5088607;28;20183;-83
2021/05/09 03:34:18;;;;;;;2.90;2.28;;;12.60;99.90;;;;;;5082220;28;20211;-83
2021/05/09 03:36:48;;;;;;;2.55;1.98;;;12.60;99.90;;;;;;5091035;28;20187;-83
2021/05/09 03:39:14;;;;;;;3.05;2.00;;;12.60;99.90;;;;;;5075363;28;20180;-83
2021/05/09 03:41:40;;;;;;;2.78;1.90;;;12.60;99.90;;;;;;5082649;28;20551;-83
2021/05/09 03:44:07;;;;;;;5.25;2.20;;;12.60;99.90;;;;;;5078506;28;20185;-84
2021/05/09 03:46:33;;;;;;;3.20;2.38;;;12.50;99.90;;;;;;5079075;28;20279;-83
2021/05/09 03:49:00;;;;;;;5.15;2.38;;;12.60;99.90;;;;;;5083009;28;20184;-84
2021/05/09 03:51:26;;;;;;;3.72;2.25;;;12.50;99.90;;;;;;5076057;28;20194;-83
2021/05/09 03:53:53;;;;;;;3.00;2.05;;;12.50;99.90;;;;;;5074511;28;20445;-84
2021/05/09 03:56:19;;;;;;;2.40;2.05;;;12.50;99.90;;;;;;5083622;28;20634;-82
2021/05/09 03:58:45;;;;;;;3.72;2.65;;;12.60;99.90;;;;;;5094125;28;20176;-85
2021/05/09 04:01:12;;;;;;;3.42;2.40;;;12.70;99.90;;;;;;5101191;28;20212;-84
2021/05/09 04:03:38;;;;;;;3.03;2.10;;;12.70;99.90;;;;;;5114647;28;20178;-85
2021/05/09 04:06:05;;;;;;;2.78;1.80;;;12.60;99.90;;;;;;5093705;28;20180;-84
2021/05/09 04:08:31;;;;;;;5.20;2.17;;;12.70;99.90;;;;;;5095444;28;20209;-84
2021/05/09 04:11:00;;;;;;;6.18;2.72;;;12.70;99.90;;;;;;5081872;28;20187;-84
2021/05/09 04:13:26;;;;;;;3.20;2.15;;;12.60;99.90;;;;;;5074549;28;20207;-84
2021/05/09 04:15:53;;;;;;;3.60;2.45;;;12.60;99.90;;;;;;5074479;28;20188;-84
2021/05/09 04:18:19;;;;;;;2.83;2.08;;;12.70;99.90;;;;;;5087591;28;20264;-84
2021/05/09 04:20:45;;;;;;;2.65;2.00;;;12.70;99.90;;;;;;5090704;28;20179;-84
2021/05/09 04:23:14;;;;;;;4.07;3.05;;;12.70;99.90;;;;;;5074237;28;20184;-84
2021/05/09 04:25:41;;;;;;;3.08;1.95;;;12.60;99.90;;;;;;5075868;28;20193;-84
2021/05/09 04:28:08;;;;;;;3.85;2.30;;;12.70;99.90;;;;;;5078892;28;20185;-84
2021/05/09 04:30:35;;;;;;;5.10;1.77;;;12.70;99.90;;;;;;5094184;28;20190;-84
2021/05/09 04:33:03;;;;;;;3.63;2.17;;;12.70;99.90;;;;;;5090862;28;20183;-84
2021/05/09 04:35:29;;;;;;;5.68;2.30;;;12.70;99.90;;;;;;5076611;28;20180;-84
2021/05/09 04:37:56;;;;;;;6.25;2.80;;;12.80;99.90;;;;;;5073933;28;20191;-84
2021/05/09 04:40:22;;;;;;;4.78;3.10;;;12.80;99.90;;;;;;5088500;28;20235;-84
2021/05/09 04:42:50;;;;;;;4.15;2.00;;;13.10;99.90;;;;;;5083132;28;20770;-84
2021/05/09 04:45:17;;;;;;;3.65;1.90;;;13.10;99.90;;;;;;5076346;28;20194;-83
2021/05/09 04:47:44;;;;;;;4.75;1.98;;;13.20;99.90;;;;;;5078359;28;20639;-84
2021/05/09 04:50:11;;;;;;;3.20;2.20;;;13.30;99.90;;;;;;5086575;28;20187;-84
2021/05/09 04:52:38;;;;;;;3.08;2.10;;;13.40;99.90;;;;;;5092812;28;20179;-83
2021/05/09 04:55:05;;;;;;;3.85;2.00;;;13.60;99.90;;;;;;5092940;28;20218;-84
2021/05/09 04:57:33;;;;;;;4.10;2.28;;;13.60;99.90;;;;;;5085041;28;20188;-85
2021/05/09 04:59:59;;;;;;;2.55;1.60;;;13.70;99.90;;;;;;5093245;28;20183;-85
2021/05/09 05:02:26;;;;;;;3.47;2.10;;;13.90;99.90;;;;;;5093428;28;20218;-84
2021/05/09 05:04:52;;;;;;;2.80;1.80;;;13.90;99.90;;;;;;5083994;28;20243;-84
2021/05/09 05:07:19;;;;;;;4.25;1.50;;;14.00;99.90;;;;;;5084606;28;20249;-84
2021/05/09 05:09:45;;;;;;;4.05;1.80;;;14.10;99.90;;;;;;5092836;28;20180;-84
2021/05/09 05:12:11;;;;;;;4.25;2.20;;;14.30;99.90;;;;;;5084459;28;20183;-84
2021/05/09 05:14:38;;;;;;;2.75;1.85;;;14.40;99.90;;;;;;5090184;28;20242;-85
2021/05/09 05:17:05;;;;;;;2.50;1.67;;;14.50;99.90;;;;;;5073885;28;20209;-85
2021/05/09 05:19:32;;;;;;;3.22;1.52;;;14.60;99.90;;;;;;5084730;28;20575;-84
2021/05/09 05:21:58;;;;;;;2.97;2.05;;;14.80;99.90;;;;;;5082244;28;20185;-84
2021/05/09 05:24:25;;;;;;;3.70;1.85;;;14.90;99.90;;;;;;5091729;28;20197;-84
2021/05/09 05:26:52;;;;;;;4.43;2.00;;;15.00;99.90;;;;;;5076439;28;20243;-84
2021/05/09 05:29:20;;;;;;;3.05;2.00;;;15.10;99.90;;;;;;5084620;28;20235;-84
2021/05/09 05:31:46;;;;;;;2.47;1.80;;;15.10;99.90;;;;;;5087378;28;20669;-84
2021/05/09 05:34:12;;;;;;;2.75;1.50;;;15.20;99.90;;;;;;5085213;28;20671;-84
2021/05/09 05:36:40;;;;;;;4.13;2.65;;;15.30;99.90;;;;;;5092840;28;20235;-84
2021/05/09 05:39:06;;;;;;;3.28;1.60;;;15.30;99.90;;;;;;5079604;28;20190;-85
2021/05/09 05:41:33;;;;;;;2.70;2.10;;;15.20;99.90;;;;;;5088203;28;20180;-84
2021/05/09 05:43:59;;;;;;;4.18;2.00;;;15.10;99.90;;;;;;5081462;28;20219;-85
2021/05/09 05:46:27;;;;;;;3.60;2.00;;;15.00;99.90;;;;;;5091407;28;20181;-85
2021/05/09 05:48:53;;;;;;;4.97;2.10;;;15.00;99.90;;;;;;5077554;28;20179;-84
2021/05/09 05:51:20;;;;;;;6.03;1.42;;;15.00;99.90;;;;;;5089686;28;20196;-81
2021/05/09 05:53:47;;;;;;;3.10;1.50;;;15.10;99.90;;;;;;5090892;28;20214;-82
2021/05/09 05:56:13;;;;;;;4.53;1.80;;;15.20;99.90;;;;;;5090179;28;20193;-81
2021/05/09 05:58:40;;;;;;;2.90;1.40;;;15.20;99.90;;;;;;5086384;28;20190;-80
2021/05/09 06:01:06;;;;;;;5.90;1.95;;;15.20;99.90;;;;;;5091687;28;20178;-80
2021/05/09 06:03:32;;;;;;;2.50;1.65;;;15.40;99.90;;;;;;5092034;28;20186;-80
2021/05/09 06:05:58;;;;;;;3.58;1.90;;;15.50;99.90;;;;;;5095737;28;20194;-80
2021/05/09 06:08:25;;;;;;;3.17;1.85;;;15.60;99.90;;;;;;5095861;28;20192;-80
2021/05/09 06:10:52;;;;;;;3.35;1.85;;;15.80;99.90;;;;;;5096012;28;20657;-80
2021/05/09 06:13:21;;;;;;;3.40;1.90;;;15.90;99.90;;;;;;5095440;28;20193;-80
2021/05/09 06:15:47;;;;;;;2.50;1.77;;;16.00;99.90;;;;;;5089731;28;20188;-82
2021/05/09 06:18:13;;;;;;;2.60;1.70;;;16.20;99.90;;;;;;5080264;28;20545;-80
2021/05/09 06:20:40;;;;;;;4.65;1.80;;;16.30;99.90;;;;;;5095557;28;20190;-80
2021/05/09 06:23:06;;;;;;;4.28;2.03;;;16.30;99.90;;;;;;5095304;28;20657;-80
2021/05/09 06:25:33;;;;;;;3.50;2.22;;;16.40;99.90;;;;;;5091781;28;20294;-81
2021/05/09 06:28:00;;;;;;;3.00;1.65;;;16.60;99.90;;;;;;5082713;28;20319;-81
2021/05/09 06:30:26;;;;;;;2.80;1.40;;;16.60;99.90;;;;;;5108440;28;20186;-82
2021/05/09 06:32:53;;;;;;;2.53;1.30;;;16.70;99.90;;;;;;5095202;28;20199;-80
2021/05/09 06:35:19;;;;;;;2.35;1.35;;;16.80;99.90;;;;;;5095548;28;20747;-80
2021/05/09 06:37:46;;;;;;;2.83;1.55;;;16.90;99.90;;;;;;5101449;28;20273;-81
2021/05/09 06:40:13;;;;;;;2.72;1.80;;;17.10;99.90;;;;;;5095760;28;20194;-82
2021/05/09 06:42:39;;;;;;;3.35;1.80;;;17.20;99.90;;;;;;5095279;28;20179;-82
2021/05/09 06:45:11;;;;;;;2.88;1.65;;;17.40;99.90;;;;;;5095187;28;20642;-82
2021/05/09 06:47:37;;;;;;;2.25;1.48;;;17.40;99.90;;;;;;5097175;28;20194;-81
2021/05/09 06:50:04;;;;;;;2.63;1.92;;;17.60;99.90;;;;;;5097500;28;20183;-80
2021/05/09 06:52:30;;;;;;;2.10;1.52;;;17.60;99.90;;;;;;5100091;28;20642;-81
2021/05/09 06:54:56;;;;;;;2.40;1.65;;;17.80;99.90;;;;;;5090756;28;20222;-81
2021/05/09 06:57:22;;;;;;;3.20;1.55;;;17.90;99.90;;;;;;5098122;28;20194;-80
2021/05/09 06:59:49;;;;;;;3.35;1.40;;;18.00;99.90;;;;;;5098899;28;20179;-80
2021/05/09 07:02:16;;;;;;;7.22;2.08;;;18.10;99.90;;;;;;5095372;28;20218;-80
2021/05/09 07:04:42;;;;;;;3.45;1.95;;;18.30;99.90;;;;;;5088685;28;20179;-82
2021/05/09 07:07:08;;;;;;;2.50;1.60;;;18.30;99.90;;;;;;5083476;28;20539;-81
2021/05/09 07:09:34;;;;;;;2.00;1.30;;;18.40;99.90;;;;;;5075279;28;20180;-81
2021/05/09 07:12:00;;;;;;;3.65;1.70;;;18.50;99.90;;;;;;5084875;28;20213;-81
2021/05/09 07:14:27;;;;;;;3.05;1.80;;;18.60;99.90;;;;;;5103994;28;20218;-82
2021/05/09 07:16:53;;;;;;;3.78;1.73;;;18.70;99.90;;;;;;5076017;28;20547;-82
2021/05/09 07:19:20;;;;;;;2.97;1.52;;;18.70;99.90;;;;;;5075426;28;20220;-82
2021/05/09 07:21:50;;;;;;;6.80;1.70;;;18.80;99.90;;;;;;5079841;28;20186;-81
2021/05/09 07:24:16;;;;;;;2.92;2.05;;;18.80;99.90;;;;;;5076182;28;20566;-81
2021/05/09 07:26:43;;;;;;;4.85;1.83;;;18.90;99.90;;;;;;5082394;28;20650;-82
2021/05/09 07:29:09;;;;;;;2.97;1.73;;;19.00;99.90;;;;;;5074742;28;20207;-84
2021/05/09 07:31:40;;;;;;;4.57;2.40;;;19.10;99.90;;;;;;5076871;28;20176;-84
2021/05/09 07:34:06;;;;;;;6.22;1.77;;;19.20;99.90;;;;;;5074881;28;20205;-84
2021/05/09 07:36:33;;;;;;;3.38;2.08;;;19.30;99.90;;;;;;5077290;28;20188;-84
2021/05/09 07:39:00;;;;;;;2.58;1.63;;;19.40;99.90;;;;;;5074672;28;20198;-84
2021/05/09 07:41:26;;;;;;;2.83;1.60;;;19.40;99.90;;;;;;5089768;28;20186;-83
2021/05/09 07:43:53;;;;;;;3.17;1.80;;;19.50;99.90;;;;;;5094376;28;21343;-83
2021/05/09 07:46:19;;;;;;;5.28;1.90;;;19.60;99.90;;;;;;5080917;28;20628;-83
2021/05/09 07:48:46;;;;;;;2.60;1.52;;;19.70;99.90;;;;;;5077363;28;20206;-85
2021/05/09 07:51:12;;;;;;;3.30;2.28;;;19.90;99.90;;;;;;5075537;28;20183;-83
2021/05/09 07:53:39;;;;;;;3.50;1.88;;;20.10;99.90;;;;;;5076262;28;20394;-84
2021/05/09 07:56:06;;;;;;;3.45;1.65;;;20.20;99.90;;;;;;5074277;28;20179;-84
2021/05/09 07:58:32;;;;;;;5.32;1.98;;;20.30;99.90;;;;;;5074722;28;20547;-83
2021/05/09 08:01:01;;;;;;;2.60;1.80;;;20.50;99.90;;;;;;5073965;28;20188;-83
2021/05/09 08:03:27;;;;;;;2.95;1.85;;;20.60;99.90;;;;;;5073863;28;20187;-84
2021/05/09 08:05:53;;;;;;;3.88;2.75;;;20.80;99.90;;;;;;5074013;28;20183;-83
2021/05/09 08:08:21;;;;;;;2.60;1.67;;;20.90;99.90;;;;;;5074038;28;20195;-82
2021/05/09 08:10:48;;;;;;;3.90;2.25;;;21.00;99.90;;;;;;5074103;28;20187;-83
2021/05/09 08:13:14;;;;;;;2.78;2.13;;;21.10;99.90;;;;;;5074091;28;20262;-82
2021/05/09 08:15:41;;;;;;;3.97;1.83;;;21.10;99.90;;;;;;5073789;28;20222;-83
2021/05/09 08:18:07;;;;;;;4.60;2.28;;;21.20;99.90;;;;;;5090801;28;20186;-81
2021/05/09 08:20:34;;;;;;;5.70;2.65;;;21.30;99.90;;;;;;5093701;28;20198;-82
2021/05/09 08:23:00;;;;;;;2.40;1.80;;;21.40;99.90;;;;;;5094332;28;20197;-83
2021/05/09 08:25:26;;;;;;;5.00;2.40;;;21.60;99.90;;;;;;5093989;28;20274;-83
2021/05/09 08:27:53;;;;;;;3.75;2.65;;;21.70;99.90;;;;;;5093252;28;20187;-83
2021/05/09 08:30:21;;;;;;;3.83;2.17;;;21.80;99.90;;;;;;5094174;28;20213;-83
2021/05/09 08:32:48;;;;;;;6.18;1.80;;;22.00;99.90;;;;;;5094357;28;20598;-84
2021/05/09 08:35:15;;;;;;;10.35;3.45;;;22.10;99.90;;;;;;5094072;28;20225;-83
2021/05/09 08:37:42;;;;;;;3.85;1.90;;;22.20;99.90;;;;;;5093973;28;20201;-83
2021/05/09 08:40:10;;;;;;;4.93;1.90;;;22.20;99.90;;;;;;5093112;28;20421;-83
2021/05/09 08:42:36;;;;;;;4.40;2.03;;;22.40;99.90;;;;;;5092792;28;20437;-83
2021/05/09 08:45:04;;;;;;;3.13;1.88;;;22.60;99.90;;;;;;5092688;28;20429;-82
2021/05/09 08:47:38;;;;;;;3.90;2.00;;;22.70;99.90;;;;;;5092259;28;20418;-82
2021/05/09 08:50:06;;;;;;;2.70;1.90;;;22.90;99.90;;;;;;5092684;28;20422;-82
2021/05/09 08:52:34;;;;;;;5.03;2.08;;;23.10;99.90;;;;;;5092086;28;20938;-82
2021/05/09 08:55:00;;;;;;;3.17;1.80;;;23.30;99.90;;;;;;5089610;28;20913;-83
2021/05/09 08:57:26;;;;;;;2.75;1.60;;;23.50;99.90;;;;;;5072331;28;20472;-83
2021/05/09 08:59:52;;;;;;;3.20;1.80;;;23.60;99.90;;;;;;5072193;28;20498;-85
2021/05/09 09:02:22;;;;;;;3.33;2.17;;;23.80;99.90;;;;;;5072093;28;20926;-83
2021/05/09 09:04:49;;;;;;;3.70;2.30;;;23.90;99.90;;;;;;5071900;28;20465;-83
2021/05/09 09:07:16;;;;;;;3.50;1.98;;;24.00;99.90;;;;;;5088918;28;20927;-84
2021/05/09 09:09:44;;;;;;;4.05;1.90;;;24.20;99.90;;;;;;5073215;28;20428;-84
2021/05/09 09:12:11;;;;;;;4.57;2.10;;;24.30;99.90;;;;;;5082443;28;20436;-84
2021/05/09 09:14:55;;;;;;;3.50;1.90;;;24.10;99.90;;;;;;5084933;28;20435;-84
2021/05/09 09:17:23;;;;;;;4.68;1.90;;;23.80;99.90;;;;;;5081086;28;20430;-84
2021/05/09 09:20:13;;;;;;;3.28;1.88;;;23.60;99.90;;;;;;5092294;28;20529;-84
2021/05/09 09:23:03;;;;;;;3.25;1.80;;;23.60;99.90;;;;;;5088336;28;20187;-84
2021/05/09 09:25:31;;;;;;;5.55;2.03;;;23.80;99.90;;;;;;5070657;28;20427;-85
2021/05/09 09:27:58;;;;;;;3.60;1.80;;;23.90;99.90;;;;;;5083973;28;20418;-84
2021/05/09 09:30:25;;;;;;;3.20;1.95;;;24.20;99.90;;;;;;5086909;28;20880;-83
2021/05/09 09:33:10;;;;;;;6.30;2.20;;;24.40;99.90;;;;;;5080592;28;20414;-86
2021/05/09 09:35:36;;;;;;;4.70;2.40;;;24.50;99.90;;;;;;5091669;28;20464;-85
2021/05/09 09:38:21;;;;;;;3.92;2.13;;;24.60;99.90;;;;;;5078661;28;20423;-85
2021/05/09 09:41:05;;;;;;;4.10;2.03;;;24.70;99.90;;;;;;5075521;28;20447;-86
2021/05/09 09:43:32;;;;;;;3.83;2.30;;;24.60;99.90;;;;;;5076835;28;20431;-85
2021/05/09 09:45:58;;;;;;;3.50;2.20;;;24.70;99.90;;;;;;5075888;28;20430;-86
2021/05/09 09:48:38;;;;;;;3.10;1.80;;;25.00;99.90;;;;;;5084799;28;20514;-85
2021/05/09 09:51:05;;;;;;;3.97;2.40;;;25.20;99.90;;;;;;5075743;28;20540;-85
2021/05/09 09:53:33;;;;;;;3.65;2.05;;;25.40;99.90;;;;;;5081853;28;20438;-84
2021/05/09 09:56:01;;;;;;;3.85;2.20;;;25.60;99.90;;;;;;5095045;28;20440;-84
2021/05/09 09:58:40;;;;;;;3.80;2.20;;;25.80;99.90;;;;;;5084144;28;20420;-86
2021/05/09 10:01:07;;;;;;;2.78;1.70;;;25.80;99.90;;;;;;5077973;28;20419;-83
2021/05/09 10:03:34;;;;;;;3.05;1.88;;;25.90;99.90;;;;;;5084907;28;20429;-85
2021/05/09 10:06:02;;;;;;;4.68;2.20;;;25.90;99.90;;;;;;5090070;28;20437;-86
2021/05/09 10:08:28;;;;;;;3.67;2.20;;;26.20;99.90;;;;;;5092945;28;20421;-82
2021/05/09 10:10:54;;;;;;;4.38;2.28;;;26.50;99.90;;;;;;5078964;28;20485;-87
2021/05/09 10:13:22;;;;;;;4.30;2.22;;;27.00;99.90;;;;;;5085341;28;20820;-86
2021/05/09 10:15:48;;;;;;;4.50;2.28;;;27.40;99.90;;;;;;5094783;28;20437;-86
2021/05/09 10:18:15;;;;;;;3.33;2.20;;;27.50;99.90;;;;;;5092593;28;20457;-86
2021/05/09 10:20:42;;;;;;;4.10;2.30;;;27.30;99.90;;;;;;5095077;28;20453;-86
2021/05/09 10:23:09;;;;;;;4.55;2.58;;;27.20;99.90;;;;;;5098441;28;20417;-87
2021/05/09 10:25:46;;;;;;;3.90;2.10;;;27.20;99.90;;;;;;5096885;28;20414;-85
2021/05/09 10:28:14;;;;;;;3.53;2.33;;;27.20;99.90;;;;;;5113487;28;20484;-85
2021/05/09 10:30:51;;;;;;;3.30;2.10;;;27.20;99.90;;;;;;5108535;28;20413;-85
2021/05/09 10:33:46;;;;;;;5.00;2.15;;;26.90;99.90;;;;;;5103794;28;20448;-84
2021/05/09 10:36:40;;;;;;;5.03;3.60;;;27.00;99.90;;;;;;5119920;28;20167;-86
2021/05/09 10:39:17;;;;;;;;;;;27.20;99.90;;;;;;5121155;28;20281;-86
2021/05/09 10:42:02;;;;;;;;;;;27.10;99.90;;;;;;5112972;28;19964;-85
2021/05/09 10:44:46;;;;;;;4.97;2.50;;;27.00;99.90;;;;;;5100366;28;20284;-86
2021/05/09 10:47:16;;;;;;;3.10;2.13;;;27.00;99.90;;;;;;5094878;28;20453;-85
2021/05/09 10:50:22;;;;;;;4.20;2.60;;;27.00;99.90;;;;;;5081137;28;20444;-85
2021/05/09 10:52:50;;;;;;;3.40;2.60;;;27.20;99.90;;;;;;5075674;28;20442;-84
2021/05/09 10:55:43;;;;;;;7.10;3.07;;;27.50;99.90;;;;;;5076581;28;20473;-85
2021/05/09 10:58:11;;;;;;;4.00;3.10;;;27.80;99.90;;;;;;5075503;28;20964;-85
2021/05/09 11:01:15;;;;;;;4.57;1.83;;;27.70;99.90;;;;;;5086044;28;20758;-85
2021/05/09 11:03:46;;;;;;;4.13;2.37;;;27.40;99.90;;;;;;5095861;28;20550;-85
2021/05/09 11:06:14;;;;;;;3.10;2.13;;;27.50;99.90;;;;;;5080832;28;20442;-85
2021/05/09 11:08:56;;;;;;;3.13;1.93;;;27.80;99.90;;;;;;5075781;28;20481;-85
2021/05/09 11:12:02;;;;;;;3.40;2.07;;;27.90;99.90;;;;;;5092012;28;20437;-87
2021/05/09 11:14:35;;;;;;;3.70;2.20;;;28.20;99.90;;;;;;5095462;28;20476;-88
2021/05/09 11:17:04;;;;;;;3.43;2.30;;;28.30;99.90;;;;;;5075731;28;20449;-88
2021/05/09 11:19:51;;;;;;;3.00;2.27;;;28.70;99.90;;;;;;5075520;28;20426;-89
2021/05/09 11:22:22;;;;;;;3.43;2.50;;;28.50;99.90;;;;;;5075781;28;20939;-83
2021/05/09 11:24:55;;;;;;;3.17;1.97;;;28.30;99.90;;;;;;5077282;28;20459;-85
2021/05/09 11:27:22;;;;;;;6.40;2.57;;;28.40;99.90;;;;;;5095377;28;20791;-86
2021/05/09 11:29:49;;;;;;;3.63;2.00;;;28.50;99.90;;;;;;5094074;28;20804;-86
2021/05/09 11:32:17;;;;;;;3.60;2.10;;;28.70;99.90;;;;;;5079271;28;20437;-84
2021/05/09 11:34:51;;;;;;;4.03;2.50;;;28.90;99.90;;;;;;5086451;28;20496;-86
2021/05/09 11:37:18;;;;;;;3.70;2.37;;;28.70;99.90;;;;;;5084431;28;20430;-86
2021/05/09 11:39:45;;;;;;;3.27;1.90;;;28.40;99.90;;;;;;5081222;28;20445;-85
2021/05/09 11:42:13;;;;;;;3.60;1.77;;;28.50;99.90;;;;;;5101433;28;20432;-86
2021/05/09 11:44:42;;;;;;;3.83;2.07;;;28.50;99.90;;;;;;5100858;28;20444;-86
2021/05/09 11:47:11;;;;;;;6.80;2.77;;;28.80;99.90;;;;;;5100147;28;20452;-85
2021/05/09 11:49:38;;;;;;;3.73;2.70;;;29.10;99.90;;;;;;5104733;28;20457;-86
2021/05/09 11:52:07;;;;;;;3.60;3.10;;;29.40;99.90;;;;;;5108363;28;20428;-86
2021/05/09 11:54:36;;;;;;;3.60;1.93;;;30.00;99.90;;;;;;5116914;28;20457;-87
2021/05/09 11:57:04;;;;;;;3.43;1.87;;;30.30;99.90;;;;;;5099833;28;20489;-86
2021/05/09 11:59:32;;;;;;;3.67;2.10;;;30.30;99.90;;;;;;5097245;28;20429;-87
2021/05/09 12:02:01;;;;;;;2.83;2.17;;;30.40;99.90;;;;;;5092805;28;20480;-86
2021/05/09 12:04:31;;;;;;;4.63;3.03;;;30.70;99.90;;;;;;5094936;28;20472;-86
2021/05/09 12:07:03;;;;;;;5.13;2.53;;;31.50;99.90;;;;;;5094712;28;20442;-87
2021/05/09 12:09:31;;;;;;;3.27;2.43;;;31.40;99.90;;;;;;5114038;28;20508;-89
2021/05/09 12:11:59;;;;;;;3.20;2.20;;;31.20;99.90;;;;;;5116578;28;20424;-88
2021/05/09 12:14:26;;;;;;;4.20;2.07;;;31.40;99.90;;;;;;5090062;28;20441;-89
2021/05/09 12:16:53;;;;;;;3.60;1.93;;;31.50;99.90;;;;;;5099646;28;20509;-88
2021/05/09 12:19:29;;;;;;;2.97;1.80;;;31.60;99.90;;;;;;5100156;28;20505;-87
2021/05/09 12:21:56;;;;;;;4.13;2.00;;;31.60;99.90;;;;;;5097949;28;20496;-87
2021/05/09 12:24:23;;;;;;;3.10;2.00;;;32.30;99.90;;;;;;5117292;28;20530;-87
2021/05/09 12:27:02;;;;;;;4.70;2.43;;;32.40;99.90;;;;;;5098316;28;20441;-87
2021/05/09 12:29:29;;;;;;;10.90;2.13;;;32.40;99.90;;;;;;5100739;28;20433;-89
2021/05/09 12:32:14;;;;;;;3.70;1.90;;;32.40;99.90;;;;;;5103057;28;20405;-87
2021/05/09 12:34:41;;;;;;;4.10;1.93;;;32.50;99.90;;;;;;5117004;28;20425;-86
2021/05/09 12:37:10;;;;;;;5.60;2.47;;;31.90;99.90;;;;;;5105778;28;20426;-84
2021/05/09 12:39:36;;;;;;;4.47;2.37;;;31.60;99.90;;;;;;5112518;28;20916;-84
2021/05/09 12:42:04;;;;;;;3.13;2.27;;;31.40;99.90;;;;;;5110886;28;20438;-86
2021/05/09 12:44:30;;;;;;;4.10;2.20;;;31.90;99.90;;;;;;5088669;28;20473;-86
2021/05/09 12:46:58;;;;;;;4.73;2.23;;;33.00;99.90;;;;;;5092582;28;20430;-87
2021/05/09 12:49:28;;;;;;;4.00;1.80;;;33.50;99.40;;;;;;5079750;28;20433;-88
2021/05/09 12:52:02;;;;;;;4.17;2.20;;;32.90;99.30;;;;;;5074784;28;20530;-91
2021/05/09 12:54:37;;;;;;;3.73;1.90;;;32.30;99.50;;;;;;5090640;28;20505;-91